San Antonio, Valles Caldera, New Mexico Weather observations

Data are for 10 minute period ending at time listed.
 Day   Time   Solar   Ave.   Ave.  Ave.  Vector  Max.   Baro.   Total    
  of    of     Rad.   Air    Rel.  Wind   Wind   Wind  Press.  Precip.   
Year   Day            Temp.  Hum.  Speed  Dir.   Gust                    
2014   (MST)  Kw/m2    F      %     mph   deg.    mph    mb.     in.     
-------------------------------------------------------------------------
 351    0:00   0.00   16.6    83    1.1    63     3.6   395.9    0.00 
 351    0:10   0.00   16.9    84    1.8    72     3.6   395.9    0.00 
 351    0:20   0.00   17.4    83    1.1   359     3.0   395.9    0.00 
 351    0:30   0.00   16.9    83    0.0     0     0.0   395.5    0.00 
 351    0:40   0.00   16.0    83    0.3   257     2.4   395.9    0.00 
 351    0:50   0.00   15.2    85    0.7   302     3.0   395.9    0.00 
 351    1:00   0.00   15.5    86    0.2   247     1.8   396.2    0.00 
 351    1:10   0.00   16.1    86    0.2   140     1.2   396.2    0.00 
 351    1:20   0.00   15.7    85    0.8     4     3.6   396.2    0.00 
 351    1:30   0.00   15.5    86    1.0   308     1.8   396.2    0.00 
 351    1:40   0.00   14.9    85    1.2    97     4.2   396.2    0.00 
 351    1:50   0.00   15.3    86    1.5   348     3.6   396.2    0.00 
 351    2:00   0.00   15.4    85    1.9    14     4.8   396.2    0.00 
 351    2:10   0.00   15.3    87    2.3   350     4.8   396.2    0.00 
 351    2:20   0.00   14.5    85    1.7   354     4.2   396.2    0.00 
 351    2:30   0.00   14.6    88    1.7    60     4.2   396.5    0.00 
 351    2:40   0.00   15.1    86    2.0    86     3.6   396.2    0.00 
 351    2:50   0.00   15.6    87    1.5    13     3.0   396.5    0.00 
 351    3:00   0.00   15.8    86    1.6   321     6.0   396.2    0.00 
 351    3:10   0.00   16.1    86    1.7   285     4.8   396.2    0.00 
 351    3:20   0.00   15.4    85    1.1   323     3.0   395.9    0.00 
 351    3:30   0.00   15.1    86    0.8    35     3.0   396.2    0.00 
 351    3:40   0.00   16.1    87    1.1     3     3.6   396.5    0.00 
 351    3:50   0.00   15.1    85    1.9    60     4.2   396.2    0.00 
 351    4:00   0.00   15.4    87    1.8     0     4.8   396.5    0.00 
 351    4:10   0.00   15.3    86    1.2    18     3.0   396.2    0.00 
 351    4:20   0.00   15.8    86    2.0   304     4.8   396.5    0.00 
 351    4:30   0.00   15.9    87    1.8    91     3.0   396.2    0.00 
 351    4:40   0.00   16.1    85    1.6   316     4.2   396.2    0.00 
 351    4:50   0.00   15.2    86    1.1   104     3.0   396.2    0.00 
 351    5:00   0.00   15.7    87    1.2    95     3.0   396.5    0.00 
 351    5:10   0.00   15.9    86    2.1     7     5.4   396.2    0.00 
 351    5:20   0.00   16.0    86    1.2   293     3.6   396.2    0.00 
 351    5:30   0.00   15.7    86    1.6   338     3.0   396.2    0.00 
 351    5:40   0.00   17.2    86    3.2   131     7.8   396.2    0.00 
 351    5:50   0.00   16.3    85    1.0    61     3.0   396.2    0.00 
 351    6:00   0.00   16.3    86    1.7   118     3.6   396.2    0.00 
 351    6:10   0.00   16.8    86    2.2   317     4.8   396.2    0.00 
 351    6:20   0.00   16.9    85    2.1   295     4.2   396.2    0.00 
 351    6:30   0.00   17.0    85    1.2   350     2.4   396.2    0.00 
 351    6:40   0.00   17.1    85    2.0   305     3.0   396.2    0.00 
 351    6:50   0.00   16.6    85    0.7   105     2.4   395.9    0.00 
 351    7:00   0.00   16.5    86    1.3    51     2.4   396.2    0.00 
 351    7:10   0.00   17.3    87    0.8   270     4.2   396.2    0.00 
 351    7:20   0.00   16.4    85    1.4    16     3.6   396.2    0.00 
 351    7:30   0.01   16.5    86    1.1   144     3.0   396.2    0.00 
 351    7:40   0.01   17.1    86    0.9    67     3.0   396.2    0.00 
 351    7:50   0.02   18.2    86    1.2   292     2.4   396.2    0.00 
 351    8:00   0.04   19.0    84    0.4   269     1.8   396.2    0.00 
 351    8:10   0.04   19.1    83    0.7   258     1.8   395.9    0.00 
 351    8:20   0.03   19.4    83    0.9   296     2.4   395.9    0.00 
 351    8:30   0.04   20.0    82    0.3   287     1.8   395.9    0.00 
 351    8:40   0.04   20.8    82    0.4   238     2.4   395.9    0.00 
 351    8:50   0.04   21.1    82    1.5   270     2.4   395.9    0.00 
 351    9:00   0.05   20.7    84    1.0   268     3.0   395.9    0.00 
 351    9:10   0.06   20.7    85    0.1   246     1.2   396.2    0.00 
 351    9:20   0.05   21.0    86    0.3   209     2.4   396.2    0.00 
 351    9:30   0.04   21.7    87    0.5   272     1.8   396.5    0.00 
 351    9:40   0.04   22.8    87    0.2    29     1.2   396.5    0.00 
 351    9:50   0.05   23.5    86    1.3   264     2.4   396.2    0.00 
 351   10:00   0.07   23.7    86    0.5   214     2.4   396.5    0.00 
 351   10:10   0.07   24.2    85    0.6   256     2.4   396.5    0.00 
 351   10:20   0.07   25.6    83    0.2   276     1.8   396.2    0.00 
 351   10:30   0.08   26.9    81    1.4   286     2.4   396.2    0.00 
 351   10:40   0.10   27.6    80    2.2   272     3.0   395.9    0.00 
 351   10:50   0.09   27.7    80    1.5   259     4.8   395.9    0.00 
 351   11:00   0.08   27.7    82    2.5   316     6.0   396.2    0.00 
 351   11:10   0.10   29.7    82    3.7   316     6.0   396.2    0.00 
 351   11:20   0.13   32.0    76    4.2   303     7.2   395.9    0.00 
 351   11:30   0.13   33.1    73    3.6   303     5.4   395.5    0.00 
 351   11:40   0.14   33.9    72    3.2   305     6.0   395.5    0.00 
 351   11:50   0.14   34.5    72    2.7   299     4.8   395.5    0.00 
 351   12:00   0.15   34.0    74    3.0   308     4.8   395.5    0.01 
 351   12:10   0.28   34.9    72    3.1   303     5.4   395.9    0.00 
 351   12:20   0.26   36.3    69    3.1   314     6.6   395.5    0.01 
 351   12:30   0.19   35.2    72    3.0   299     4.8   395.5    0.00 
 351   12:40   0.23   34.7    75    3.4   296     4.8   395.9    0.01 
 351   12:50   0.21   35.1    73    4.3   299     6.0   395.9    0.00 
 351   13:00   0.23   33.2    78    6.1   273     8.4   395.9    0.00 
 351   13:10   0.40   33.2    78    7.3   263     9.6   396.2    0.01 
 351   13:20   0.20   32.3    80    6.5   262    10.2   396.2    0.00 
 351   13:30   0.17   31.6    84    5.8   284     8.4   396.5    0.00 
 351   13:40   0.17   32.5    81    5.7   287     8.4   396.2    0.01 
 351   13:50   0.17   32.2    81    5.1   276     7.2   396.2    0.00 
 351   14:00   0.18   32.7    76    5.6   283     9.6   395.9    0.00 
 351   14:10   0.20   32.9    73    6.7   287    10.8   395.9    0.00 
 351   14:20   0.17   31.8    78    8.2   275    11.9   396.2    0.01 
 351   14:30   0.16   31.5    83    6.0   281    10.2   396.5    0.00 
 351   14:40   0.24   32.4    81    4.5   275     6.6   396.5    0.00 
 351   14:50   0.25   33.9    76    4.7   286     7.2   395.9    0.00 
 351   15:00   0.24   34.7    74    4.3   286     6.0   395.9    0.00 
 351   15:10   0.16   32.4    79    6.5   270    10.2   395.9    0.01 
 351   15:20   0.12   31.5    81    6.4   271     9.0   396.2    0.00 
 351   15:30   0.14   31.5    81    5.7   293     8.4   396.2    0.00 
 351   15:40   0.09   31.7    78    6.0   278     9.0   395.9    0.00 
 351   15:50   0.04   30.4    80    6.1   271     9.6   395.9    0.00 
 351   16:00   0.04   30.0    82    5.2   283     9.6   396.2    0.00 
 351   16:10   0.02   29.6    83    4.8   276     7.2   396.2    0.00 
 351   16:20   0.02   29.2    86    4.0   283     7.2   396.5    0.00 
 351   16:30   0.01   28.8    87    3.5   301     5.4   396.5    0.00 
 351   16:40   0.01   28.6    88    3.8   287     6.6   396.9    0.00 
 351   16:50   0.00   28.3    91    4.1   281     6.0   397.2    0.00 
 351   17:00   0.00   28.0    92    3.5   307     6.0   397.2    0.00 
 351   17:10   0.00   27.8    93    4.5   288     7.8   397.6    0.00 
 351   17:20   0.00   27.7    93    5.4   282     9.0   397.6    0.01 
 351   17:30   0.00   27.7    92    5.9   289    10.2   397.2    0.00 
 351   17:40   0.00   27.6    91    4.5   294     7.2   397.2    0.00 
 351   17:50   0.00   27.5    92    4.0   294     6.6   397.2    0.00 
 351   18:00   0.00   27.4    92    3.5   293     5.4   397.6    0.00 
 351   18:10   0.00   27.3    92    3.0   289     5.4   397.2    0.00 
 351   18:20   0.00   27.1    93    3.3   287     5.4   397.6    0.00 
 351   18:30   0.00   27.0    93    1.1   314     4.2   397.6    0.00 
 351   18:40   0.00   27.0    92    0.4   174     2.4   397.2    0.00 
 351   18:50   0.00   26.9    92    0.6   231     2.4   397.2    0.00 
 351   19:00   0.00   26.9    93    1.8   273     3.6   397.2    0.00 
 351   19:10   0.00   26.9    93    1.9   266     3.6   397.6    0.00 
 351   19:20   0.00   27.0    93    2.6   289     4.2   397.6    0.00 
 351   19:30   0.00   27.0    93    3.2   318     6.0   397.6    0.00 
 351   19:40   0.00   27.0    93    2.4   313     4.8   397.6    0.00 
 351   19:50   0.00   27.0    93    2.0   280     3.6   397.6    0.00 
 351   20:00   0.00   26.9    94    0.4   264     2.4   397.6    0.00 
 351   20:10   0.00   26.9    94    1.3   232     3.0   397.6    0.00 
 351   20:20   0.00   26.8    94    2.1   256     7.2   397.6    0.01 
 351   20:30   0.00   26.8    94    2.8   266     6.0   397.6    0.00 
 351   20:40   0.00   26.6    93    4.0   274     6.0   397.6    0.00 
 351   20:50   0.00   26.5    93    3.4   288     6.0   397.6    0.00 
 351   21:00   0.00   26.4    93    3.8   300     6.6   397.6    0.00 
 351   21:10   0.00   26.4    93    3.1   294     5.4   397.6    0.00 
 351   21:20   0.00   26.3    93    3.6   300     5.4   397.6    0.00 
 351   21:30   0.00   26.3    93    4.9   285     8.4   397.6    0.00 
 351   21:40   0.00   26.3    93    5.3   296     9.6   397.6    0.00 
 351   21:50   0.00   26.3    92    6.5   290    13.1   397.2    0.00 
 351   22:00   0.00   26.3    90    6.9   288    11.3   397.2    0.00 
 351   22:10   0.00   26.2    89    5.9   300     9.6   396.9    0.00 
 351   22:20   0.00   26.0    89    4.9   312     9.0   396.9    0.01 
 351   22:30   0.00   25.5    90    3.7   314     6.0   396.9    0.00 
 351   22:40   0.00   25.2    90    4.0   321     6.6   396.9    0.00 
 351   22:50   0.00   25.5    90    3.8   324     6.0   396.9    0.00 
 351   23:00   0.00   25.8    90    4.3   315     7.2   396.9    0.00 
 351   23:10   0.00   25.9    90    4.0   286     6.0   397.2    0.00 

Return to San Antonio, Valles Caldera graphs page.


Western Regional Climate Center,wrcc@dri.edu